METAR Data
IDs: Format: Raw Decoded Include TAF

Data at: 0035 UTC 26 Oct 2021

KGKY 252353Z 08005KT 10SM CLR 30/18 A2990 RMK AO2 SLP117 T03000183 10322 20289 55002
KGKY 252253Z 09008KT 10SM CLR 32/18 A2989 RMK AO2 SLP113 T03170183
KGKY 252153Z 11005KT 10SM CLR 32/18 A2990 RMK AO2 SLP114 T03220178
KGKY 252053Z 09004KT 10SM CLR 32/18 A2991 RMK AO2 SLP118 T03170178 56018
KGKY 251953Z 11005KT 10SM CLR 31/18 A2992 RMK AO2 SLP123 T03110178
KGKY 251853Z VRB05KT 10SM CLR 31/17 A2994 RMK AO2 SLP129 T03060167
KGKY 251753Z 13005KT 10SM CLR 29/15 A2996 RMK AO2 SLP137 T02890150 10289 20172 58012
KGKY 251653Z 07005KT 10SM CLR 28/12 A2999 RMK AO2 SLP145 T02780122
KGKY 251553Z 08007KT 10SM CLR 27/11 A2999 RMK AO2 SLP147 T02670106
KGKY 251453Z 05008KT 10SM CLR 24/12 A3000 RMK AO2 SLP150 T02440117 51019
KGKY 251353Z 04003KT 10SM CLR 22/13 A2999 RMK AO2 SLP146 T02220128
KGKY 251253Z 00000KT 10SM CLR 18/14 A2996 RMK AO2 SLP139 T01830139
KGKY 251153Z 00000KT 10SM CLR 19/14 A2995 RMK AO2 SLP132 T01940139 10256 20178 53007
KGKY 251053Z AUTO 04005KT 10SM CLR 21/14 A2994 RMK AO2 SLP129 T02060144
KGKY 250953Z AUTO 05003KT 10SM CLR 21/14 A2993 RMK AO2 SLP126 T02110144
KGKY 250853Z AUTO 03005KT 10SM CLR 22/14 A2992 RMK AO2 SLP124 T02170144 51007
KGKY 250753Z AUTO 03004KT 10SM CLR 23/14 A2992 RMK AO2 SLP123 T02280144
KGKY 250653Z AUTO 02006KT 10SM CLR 24/14 A2991 RMK AO2 SLP118 T02390144
KGKY 250553Z AUTO 01011KT 10SM CLR 26/13 A2990 RMK AO2 SLP116 T02560133 10289 20228 403110217 51014
KGKY 250453Z AUTO 33004KT 10SM BKN048 24/20 A2990 RMK AO2 SLP116 T02390200
KGKY 250353Z AUTO 00000KT 10SM CLR 24/19 A2989 RMK AO2 SLP111 T02390194
KGKY 250253Z AUTO 28004KT 10SM FEW044 SCT060 BKN090 27/19 A2986 RMK AO2 SLP103 T02720194 53030
KGKY 250153Z 16009KT 10SM CLR 27/19 A2981 RMK AO2 LTG DSNT NE SLP085 T02720194
KGKY 250053Z 15010KT 10SM CLR 28/20 A2978 RMK AO2 LTG DSNT N SLP077 T02780200
KGKY 242353Z 16008KT 10SM CLR 29/19 A2977 RMK AO2 SLP073 T02890194 10311 20283 51006
KGKY 242253Z 17010KT 10SM CLR 31/19 A2976 RMK AO2 SLP068 T03060194
KGKY 242153Z 16010KT 10SM SCT040 31/19 A2977 RMK AO2 SLP072 T03060194
KGKY 242053Z 17015G24KT 10SM SCT040 31/19 A2976 RMK AO2 PK WND 18027/2024 SLP067 T03060194 56015
KGKY 241953Z 15017G23KT 10SM FEW035 SCT045 30/19 A2976 RMK AO2 SLP068 T03000194
KGKY 241853Z 17011G25KT 10SM BKN033 29/19 A2979 RMK AO2 PK WND 16029/1825 SLP078 T02940194
KGKY 241821Z 17014G24KT 10SM SCT028 SCT035 29/19 A2979 RMK AO2 PK WND 16027/1808 T02940194
KGKY 241753Z 15016G24KT 10SM BKN024 OVC032 28/20 A2980 RMK AO2 PK WND 19027/1705 PRESFR SLP081 T02830200 10283 20222 58015
KGKY 241653Z 16018G26KT 10SM BKN020 BKN028 26/19 A2984 RMK AO2 PK WND 16026/1653 SLP095 T02610194
KGKY 241609Z 18012G19KT 10SM OVC016 26/19 A2985 RMK AO2 T02560194
KGKY 241602Z 18012G21KT 10SM OVC014 26/20 A2985 RMK AO2 T02560200
KGKY 241553Z 17013G21KT 10SM OVC015 26/20 A2985 RMK AO2 SLP097 T02560200
KGKY 241549Z 16011G21KT 10SM OVC015 25/19 A2985 RMK AO2
KGKY 241505Z 17012G20KT 10SM OVC010 24/19 A2986 RMK AO2 T02390194
KGKY 241453Z 16010G19KT 10SM OVC009 24/19 A2985 RMK AO2 CIG 008V016 SLP099 T02390194 50008
KGKY 241403Z 14010KT 10SM BKN009 BKN013 OVC027 23/19 A2985 RMK AO2 T02280194
KGKY 241353Z 15010KT 10SM BKN011 BKN017 OVC022 23/19 A2985 RMK AO2 CIG 008V013 SLP100 T02280194
KGKY 241328Z 16009KT 10SM BKN010 OVC018 23/19 A2985 RMK AO2 CIG 008V013 T02280194
KGKY 241319Z 16006KT 10SM SCT009 OVC018 23/19 A2985 RMK AO2 T02280194
KGKY 241253Z 17007KT 10SM BKN009 OVC016 22/19 A2984 RMK AO2 CIG 007V011 SLP094 T02220194
KGKY 241243Z 16005KT 10SM BKN009 OVC016 22/19 A2984 RMK AO2 CIG 007V013 T02220194